Monday, March 02, 2015
11:13 UTC
  |  Log In   |  Register Free
Airport Search:

Visalia Municipal Airport
(KVIS)

Visalia Municipal Airport Diagram
No Airport Diagram Available

FAA data valid effective January 08, 2015 - March 05, 2015 (unless otherwise noted).

 
 
 
 
 
 
 
 
 
 
 
 
 
 

Current Aviation Weather for Visalia Municipal Airport (KVIS)

The most recent METAR observation for KVIS was updated at: 1018
METAR Summary (Translated METAR)
KVIS
021015Z AUTO 13006KT 10SM FEW075 OVC100 09/06 A2991 RMK AO1
KHJO
020953Z AUTO 07007KT 8SM -RA OVC060 09/07 A2992 RMK AO2 RAB47 SLP133 P0001 T00890072
(11.4 nm SW from KVIS)
KPTV
020955Z AUTO 00000KT 10SM FEW049 BKN055 OVC110 08/07 A2993 RMK AO1
(23.6 nm SE from KVIS)
TAF Summary (Translated TAF)
KVIS
020743Z 0208/0306 VRB05KT P6SM VCSH SCT060 BKN100 FM022000 VRB05KT P6SM VCTS BKN050CB FM030400 VRB03KT P6SM SCT060
  Airport Weather Conditions for KVIS

 Current Weather at VIS
48° F
Overcast
East winds at 4.6 mph
VIS NOAA Radar

Pressure: 29.92 in
Humidity: 82%
Wind: East at 4.6 MPH (4 KT)
Dew Point: 42.8°F
Visibility: 10.00 mi


Airport Weather Forecast for KVIS

Translated METAR and TAF for KVIS
Translated METAR for KVIS (1113 UTC 02 March 2015)
found at http://aviationweather.gov/adds/metars/
 
METAR text: KVIS 021055Z AUTO 12006KT 10SM OVC110 09/05 A2989 RMK AO1
Conditions at: KVIS (VISALIA MUNI , CA, US) observed 1055 UTC 02 March 2015
Temperature: 9.0°C (48°F)
Dewpoint: 5.0°C (41°F) [RH = 76%]
Pressure (altimeter): 29.89 inches Hg (1012.3 mb)
Winds: from the ESE (120 degrees) at 7 MPH (6 knots; 3.1 m/s)
Visibility: 10 or more miles (16+ km)
Ceiling: 11000 feet AGL
Clouds: overcast cloud deck at 11000 feet AGL
Weather: automated observation with no human augmentation;
there may or may not be significant weather present at this time
Translated TAF for KVIS
Forecast for: KVIS (VISALIA MUNI , CA, US)
TAF Text: KVIS 020743Z 0208/0306 VRB05KT P6SM VCSH SCT060 BKN100
Forecast period: 0800 to 2000 UTC 02 March 2015
Forecast type: FROM: standard forecast or significant change
Winds: variable direction winds at 6 MPH (5 knots; 2.6 m/s)
Visibility: 6 or more miles (10+ km)
Ceiling: 10000 feet AGL
Clouds: scattered clouds at 6000 feet AGL
broken clouds at 10000 feet AGL
Weather: VCSH  (showers in vicinity)
TAF Text: FM022000 VRB05KT P6SM VCTS BKN050CB
Forecast period: 2000 UTC 02 March 2015 to 0400 UTC 03 March 2015
Forecast type: FROM: standard forecast or significant change
Winds: variable direction winds at 6 MPH (5 knots; 2.6 m/s)
Visibility: 6 or more miles (10+ km)
Ceiling: 5000 feet AGL
Clouds: broken clouds at 5000 feet AGL
Weather: VCTS  (thunderstorm in vicinity)
TAF Text: FM030400 VRB03KT P6SM SCT060
Forecast period: 0400 to 0600 UTC 03 March 2015
Forecast type: FROM: standard forecast or significant change
Winds: variable direction winds at 3 MPH (3 knots; 1.6 m/s)
Visibility: 6 or more miles (10+ km)
Clouds: scattered clouds at 6000 feet AGL
Weather: no significant weather forecast for this period

Find All Airport Services Find A Hotel Find A Rental Car Find A Golf Course Find A Restaurant $100 Hamburger



FBO's on the Field
FBO Company Facility Photos Services Transportation Aviation Fuel Prices: Prices include tax
Catering Weather Repair Courtesy Rental Type 100LL JetA JetA+ MOGAS 8087
 
Add another FBO Facility Photos Catering Weather Repair Courtesy Rental Type 100LL JetA JetA+ MOGAS 8087
Services Transportation Aviation Fuel Prices: Prices include tax
There are no FBO's currently reporting fuel at VIS. List your FBO now


model-print
model-print
model-print
model-print